createdAt,value
2022-11-05T00:02:06.498Z,6.19
2022-11-05T00:05:30.844Z,6.10
2022-11-05T00:08:54.662Z,5.60
2022-11-05T00:12:27.104Z,6.47
2022-11-05T00:15:50.885Z,6.10
2022-11-05T00:19:07.530Z,6.38
2022-11-05T00:22:31.595Z,6.02
2022-11-05T00:25:37.998Z,5.18
2022-11-05T00:28:44.825Z,5.43
2022-11-05T00:31:50.790Z,5.88
2022-11-05T00:34:58.507Z,6.34
2022-11-05T00:38:04.911Z,6.15
2022-11-05T00:41:10.826Z,6.25
2022-11-05T00:44:34.493Z,6.48
2022-11-05T00:47:58.472Z,6.51
2022-11-05T00:51:05.950Z,6.25
2022-11-05T00:54:12.177Z,6.06
2022-11-05T00:57:18.163Z,6.07
2022-11-05T01:00:24.853Z,5.88
2022-11-05T01:03:33.230Z,5.50
2022-11-05T01:06:40.761Z,5.30
2022-11-05T01:09:46.943Z,5.40
2022-11-05T01:12:53.341Z,5.81
2022-11-05T01:16:05.710Z,5.79
2022-11-05T01:19:12.480Z,5.54
2022-11-05T01:22:19.889Z,6.03
2022-11-05T01:25:26.349Z,5.88
2022-11-05T01:28:32.597Z,5.19
2022-11-05T01:31:38.993Z,5.22
2022-11-05T01:34:45.115Z,5.77
2022-11-05T01:37:52.479Z,5.41
2022-11-05T01:40:58.769Z,5.30
2022-11-05T01:44:05.474Z,5.70
2022-11-05T01:47:31.989Z,6.01
2022-11-05T01:50:43.526Z,5.99
2022-11-05T01:53:55.933Z,5.31
2022-11-05T01:57:07.123Z,5.59
2022-11-05T02:00:15.991Z,5.52
2022-11-05T02:03:22.484Z,5.16
2022-11-05T02:06:30.390Z,5.25
2022-11-05T02:09:45.051Z,5.46
2022-11-05T02:12:51.041Z,5.65
2022-11-05T02:16:07.218Z,5.66
2022-11-05T02:19:51.910Z,5.14
2022-11-05T02:23:31.182Z,5.14
2022-11-05T02:27:05.844Z,4.84
2022-11-05T02:30:44.670Z,5.27
2022-11-05T02:33:57.139Z,4.64
2022-11-05T02:37:14.385Z,4.57
2022-11-05T02:40:28.571Z,4.41
2022-11-05T02:43:47.812Z,4.15
2022-11-05T02:46:59.941Z,4.73
2022-11-05T02:50:20.782Z,4.16
2022-11-05T02:53:35.775Z,4.72
2022-11-05T02:56:44.985Z,4.97
2022-11-05T03:00:01.067Z,4.59
2022-11-05T03:03:16.000Z,4.89
2022-11-05T03:06:43.878Z,5.03
2022-11-05T03:10:19.003Z,5.26
2022-11-05T03:13:32.955Z,5.43
2022-11-05T03:16:43.290Z,5.44
2022-11-05T03:19:59.563Z,4.77
2022-11-05T03:23:14.410Z,5.07
2022-11-05T03:26:25.475Z,5.00
2022-11-05T03:29:36.244Z,4.25
2022-11-05T03:32:46.857Z,4.78
2022-11-05T03:35:57.786Z,4.90
2022-11-05T03:39:08.950Z,4.65
2022-11-05T03:42:19.380Z,5.23
2022-11-05T03:45:31.290Z,4.85
2022-11-05T03:48:45.037Z,4.56
2022-11-05T03:51:56.829Z,4.06
2022-11-05T03:55:03.150Z,4.09
2022-11-05T03:58:12.025Z,4.39
2022-11-05T04:01:18.294Z,4.05
2022-11-05T04:04:24.694Z,3.87
2022-11-05T04:07:49.195Z,4.52
2022-11-05T04:11:12.497Z,4.50
2022-11-05T04:14:18.538Z,4.20
2022-11-05T04:17:25.206Z,4.74
2022-11-05T04:20:54.315Z,4.31
2022-11-05T04:24:10.917Z,4.36
2022-11-05T04:27:16.997Z,4.00
2022-11-05T04:30:23.326Z,4.76
2022-11-05T04:33:29.704Z,4.48
2022-11-05T04:36:35.800Z,4.27
2022-11-05T04:39:42.996Z,4.62
2022-11-05T04:42:48.823Z,4.83
2022-11-05T04:45:55.042Z,4.38
2022-11-05T04:49:01.149Z,4.46
2022-11-05T04:52:07.175Z,4.65
2022-11-05T04:55:15.306Z,4.04
2022-11-05T04:58:22.652Z,4.36
2022-11-05T05:01:29.028Z,4.44
2022-11-05T05:04:35.616Z,4.76
2022-11-05T05:07:42.098Z,4.68
2022-11-05T05:10:49.779Z,5.07
2022-11-05T05:13:56.146Z,3.80
2022-11-05T05:17:02.134Z,3.30
2022-11-05T05:20:26.394Z,3.44
2022-11-05T05:23:32.677Z,3.27
2022-11-05T05:26:42.488Z,4.42
2022-11-05T05:29:48.589Z,3.98
2022-11-05T05:32:54.652Z,4.80
2022-11-05T05:36:04.690Z,4.44
2022-11-05T05:39:14.840Z,4.39
2022-11-05T05:42:23.073Z,3.98
2022-11-05T05:45:29.401Z,4.05
2022-11-05T05:48:35.809Z,5.15
2022-11-05T05:51:42.465Z,4.69
2022-11-05T05:54:48.817Z,5.03
2022-11-05T05:57:56.786Z,4.65
2022-11-05T06:01:04.333Z,5.48
2022-11-05T06:04:10.998Z,6.00
2022-11-05T06:07:17.191Z,5.31
2022-11-05T06:10:23.645Z,5.83
2022-11-05T06:13:31.489Z,5.92
2022-11-05T06:16:39.109Z,6.21
2022-11-05T06:19:45.421Z,6.61
2022-11-05T06:22:56.179Z,6.72
2022-11-05T06:26:02.932Z,6.81
2022-11-05T06:29:11.359Z,6.58
2022-11-05T06:32:17.550Z,7.01
2022-11-05T06:35:23.521Z,6.85
2022-11-05T06:38:30.302Z,7.17
2022-11-05T06:41:50.943Z,7.43
2022-11-05T06:45:04.425Z,6.77
2022-11-05T06:48:10.708Z,7.37
2022-11-05T06:51:16.810Z,7.49
2022-11-05T06:54:22.839Z,8.02
2022-11-05T06:57:28.853Z,8.12
2022-11-05T07:00:36.109Z,8.21
2022-11-05T07:03:42.195Z,8.65
2022-11-05T07:06:48.026Z,8.35
2022-11-05T07:09:54.011Z,8.55
2022-11-05T07:13:03.732Z,8.77
2022-11-05T07:16:15.053Z,9.01
2022-11-05T07:19:21.172Z,9.05
2022-11-05T07:22:27.106Z,9.14
2022-11-05T07:25:34.557Z,9.49
2022-11-05T07:28:40.355Z,9.61
2022-11-05T07:31:48.228Z,9.82
2022-11-05T07:34:54.194Z,9.67
2022-11-05T07:38:00.288Z,10.29
2022-11-05T07:41:09.488Z,10.57
2022-11-05T07:44:17.646Z,10.28
2022-11-05T07:47:25.492Z,10.49
2022-11-05T07:50:33.661Z,10.77
2022-11-05T07:53:45.112Z,11.02
2022-11-05T07:56:51.866Z,11.13
2022-11-05T07:59:57.762Z,11.69
2022-11-05T08:03:09.723Z,11.99
2022-11-05T08:06:16.222Z,11.96
2022-11-05T08:09:22.247Z,12.01
2022-11-05T08:12:28.660Z,12.01
2022-11-05T08:15:35.586Z,12.31
2022-11-05T08:18:43.256Z,12.59
2022-11-05T08:21:49.738Z,13.04
2022-11-05T08:24:55.524Z,12.79
2022-11-05T08:28:03.598Z,12.63
2022-11-05T08:31:09.670Z,13.02
2022-11-05T08:34:17.250Z,13.38
2022-11-05T08:37:24.214Z,13.59
2022-11-05T08:40:32.043Z,13.28
2022-11-05T08:43:38.237Z,13.69
2022-11-05T08:46:44.788Z,13.78
2022-11-05T08:49:52.363Z,14.25
2022-11-05T08:52:58.729Z,13.79
2022-11-05T08:56:05.199Z,13.89
2022-11-05T08:59:11.234Z,14.31
2022-11-05T09:02:17.528Z,14.25
2022-11-05T09:05:25.365Z,14.54
2022-11-05T09:08:32.011Z,15.20
2022-11-05T09:12:09.799Z,15.30
2022-11-05T09:15:05.376Z,15.70
2022-11-05T09:18:14.236Z,15.46
2022-11-05T09:21:21.934Z,15.45
2022-11-05T09:24:28.122Z,15.34
2022-11-05T09:27:34.287Z,15.54
2022-11-05T09:30:42.656Z,15.70
2022-11-05T09:33:49.161Z,15.76
2022-11-05T09:36:58.485Z,16.02
2022-11-05T09:40:04.981Z,16.51
2022-11-05T09:43:18.149Z,16.65
2022-11-05T09:46:27.722Z,16.39
2022-11-05T09:49:38.563Z,17.00
2022-11-05T09:52:46.589Z,17.30
2022-11-05T09:55:56.196Z,16.80
2022-11-05T09:59:06.165Z,17.27
2022-11-05T10:02:18.644Z,17.10
2022-11-05T10:05:26.822Z,17.36
2022-11-05T10:08:39.974Z,16.89
2022-11-05T10:11:51.163Z,16.88
2022-11-05T10:15:08.889Z,16.90
2022-11-05T10:18:20.883Z,17.28
2022-11-05T10:21:51.457Z,17.41
2022-11-05T10:24:56.249Z,18.22
2022-11-05T10:28:05.111Z,18.44
2022-11-05T10:31:15.644Z,17.62
2022-11-05T10:34:25.009Z,18.25
2022-11-05T10:37:36.996Z,19.25
2022-11-05T10:40:58.525Z,18.90
2022-11-05T10:44:18.984Z,19.47
2022-11-05T10:47:43.017Z,20.12
2022-11-05T10:50:49.720Z,20.13
2022-11-05T10:54:01.959Z,19.70
2022-11-05T10:57:29.854Z,20.48
2022-11-05T11:00:36.652Z,19.45
2022-11-05T11:03:45.906Z,19.11
2022-11-05T11:06:53.984Z,19.23
2022-11-05T11:10:00.602Z,19.12
2022-11-05T11:13:16.888Z,19.91
2022-11-05T11:16:25.618Z,19.50
2022-11-05T11:19:34.021Z,19.59
2022-11-05T11:22:40.201Z,19.14
2022-11-05T11:25:54.018Z,19.10
2022-11-05T11:29:07.180Z,19.01
2022-11-05T11:32:16.438Z,19.42
2022-11-05T11:35:25.424Z,19.51
2022-11-05T11:38:32.797Z,19.20
2022-11-05T11:41:42.586Z,19.38
2022-11-05T11:44:51.185Z,18.79
2022-11-05T11:47:58.222Z,18.53
2022-11-05T11:51:18.420Z,19.31
2022-11-05T11:54:29.136Z,18.83
2022-11-05T11:57:44.678Z,18.83
2022-11-05T12:01:00.279Z,18.82
2022-11-05T12:04:28.646Z,18.76
2022-11-05T12:07:48.453Z,18.33
2022-11-05T12:11:04.298Z,18.09
2022-11-05T12:14:21.163Z,18.25
2022-11-05T12:17:45.972Z,17.74
2022-11-05T12:21:08.557Z,17.76
2022-11-05T12:24:36.023Z,17.74
2022-11-05T12:28:10.590Z,17.77
2022-11-05T12:31:28.057Z,17.32
2022-11-05T12:34:54.238Z,17.64
2022-11-05T12:38:09.831Z,17.59
2022-11-05T12:41:24.774Z,17.77
2022-11-05T12:44:46.622Z,17.67
2022-11-05T12:48:07.459Z,17.71
2022-11-05T12:51:27.850Z,17.69
2022-11-05T12:54:48.985Z,17.85
2022-11-05T12:57:58.201Z,17.93
2022-11-05T13:01:10.955Z,17.73
2022-11-05T13:04:25.049Z,17.80
2022-11-05T13:07:38.326Z,17.83
2022-11-05T13:10:50.968Z,18.13
2022-11-05T13:14:06.159Z,18.07
2022-11-05T13:17:16.090Z,18.29
2022-11-05T13:20:25.636Z,18.26
2022-11-05T13:23:39.237Z,18.19
2022-11-05T13:26:51.188Z,18.14
2022-11-05T13:30:03.152Z,18.11
2022-11-05T13:33:15.093Z,17.93
2022-11-05T13:36:43.363Z,17.71
2022-11-05T13:39:55.426Z,17.74
2022-11-05T13:43:19.953Z,17.59
2022-11-05T13:46:56.773Z,17.27
2022-11-05T13:50:31.755Z,17.04
2022-11-05T13:54:10.376Z,17.23
2022-11-05T13:57:49.817Z,16.97
2022-11-05T14:01:08.732Z,17.03
2022-11-05T14:04:28.884Z,16.72
2022-11-05T14:07:37.874Z,16.77
2022-11-05T14:10:46.985Z,16.58
2022-11-05T14:13:59.041Z,16.71
2022-11-05T14:17:30.124Z,16.63
2022-11-05T14:20:58.799Z,16.41
2022-11-05T14:24:25.082Z,16.41
2022-11-05T14:27:44.960Z,16.24
2022-11-05T14:30:52.808Z,16.23
2022-11-05T14:34:05.805Z,16.28
2022-11-05T14:37:31.706Z,15.97
2022-11-05T14:40:39.706Z,15.89
2022-11-05T14:43:48.997Z,16.00
2022-11-05T14:47:00.928Z,15.94
2022-11-05T14:50:12.771Z,15.68
2022-11-05T14:53:28.586Z,15.69
2022-11-05T14:56:44.064Z,15.68
2022-11-05T14:59:54.635Z,15.39
2022-11-05T15:03:04.474Z,15.35
2022-11-05T15:06:32.859Z,15.36
2022-11-05T15:09:43.577Z,15.28
2022-11-05T15:12:54.032Z,15.25
2022-11-05T15:16:00.874Z,15.21
2022-11-05T15:19:18.764Z,14.99
2022-11-05T15:22:31.777Z,14.86
2022-11-05T15:25:49.015Z,14.87
2022-11-05T15:28:59.140Z,14.87
2022-11-05T15:32:06.406Z,14.79
2022-11-05T15:35:24.789Z,14.60
2022-11-05T15:38:34.986Z,14.50
2022-11-05T15:41:41.004Z,14.40
2022-11-05T15:44:49.185Z,14.42
2022-11-05T15:47:55.352Z,14.42
2022-11-05T15:51:03.526Z,14.29
2022-11-05T15:54:30.161Z,14.31
2022-11-05T15:57:40.325Z,14.28
2022-11-05T16:00:49.406Z,14.30
2022-11-05T16:03:58.518Z,14.16
2022-11-05T16:07:12.918Z,14.13
2022-11-05T16:10:21.944Z,14.11
2022-11-05T16:13:36.782Z,14.08
2022-11-05T16:16:43.498Z,14.06
2022-11-05T16:19:49.831Z,13.98
2022-11-05T16:22:58.824Z,14.19
2022-11-05T16:26:05.282Z,14.19
2022-11-05T16:29:17.245Z,14.04
2022-11-05T16:32:30.579Z,13.86
2022-11-05T16:35:41.864Z,13.94
2022-11-05T16:38:50.073Z,13.79
2022-11-05T16:41:56.238Z,13.81
2022-11-05T16:45:02.336Z,13.68
2022-11-05T16:48:12.373Z,13.53
2022-11-05T16:51:23.384Z,13.38
2022-11-05T16:54:33.666Z,13.16
2022-11-05T16:57:39.929Z,13.09
2022-11-05T17:00:45.975Z,13.00
2022-11-05T17:03:53.988Z,13.03
2022-11-05T17:06:59.765Z,12.92
2022-11-05T17:10:08.366Z,12.96
2022-11-05T17:13:15.989Z,12.85
2022-11-05T17:16:22.172Z,12.80
2022-11-05T17:19:28.573Z,12.78
2022-11-05T17:22:34.989Z,12.72
2022-11-05T17:25:43.872Z,12.74
2022-11-05T17:28:50.403Z,12.59
2022-11-05T17:31:56.452Z,12.53
2022-11-05T17:35:02.465Z,12.44
2022-11-05T17:38:08.613Z,12.33
2022-11-05T17:41:20.867Z,12.32
2022-11-05T17:44:27.385Z,12.33
2022-11-05T17:47:51.647Z,12.32
2022-11-05T17:50:57.811Z,12.36
2022-11-05T17:54:04.134Z,12.33
2022-11-05T17:57:11.619Z,12.37
2022-11-05T18:00:20.749Z,12.31
2022-11-05T18:03:27.161Z,12.32
2022-11-05T18:06:33.433Z,12.27
2022-11-05T18:09:39.656Z,12.29
2022-11-05T18:12:47.629Z,12.21
2022-11-05T18:15:54.390Z,12.26
2022-11-05T18:19:00.913Z,12.28
2022-11-05T18:22:07.412Z,12.26
2022-11-05T18:25:14.108Z,12.25
2022-11-05T18:28:21.847Z,12.20
2022-11-05T18:31:28.197Z,12.15
2022-11-05T18:34:34.207Z,12.05
2022-11-05T18:37:40.609Z,12.07
2022-11-05T18:40:46.714Z,12.08
2022-11-05T18:43:53.999Z,11.89
2022-11-05T18:47:00.205Z,12.00
2022-11-05T18:50:08.245Z,11.91
2022-11-05T18:53:14.327Z,11.88
2022-11-05T18:56:20.745Z,11.93
2022-11-05T18:59:38.126Z,11.67
2022-11-05T19:02:45.866Z,11.79
2022-11-05T19:05:52.525Z,11.63
2022-11-05T19:08:58.961Z,11.57
2022-11-05T19:12:06.502Z,11.42
2022-11-05T19:15:14.290Z,11.48
2022-11-05T19:18:20.528Z,11.29
2022-11-05T19:21:28.006Z,11.40
2022-11-05T19:24:34.264Z,11.57
2022-11-05T19:27:41.156Z,11.61
2022-11-05T19:30:48.597Z,11.61
2022-11-05T19:33:55.375Z,11.64
2022-11-05T19:37:01.241Z,11.78
2022-11-05T19:40:09.127Z,11.87
2022-11-05T19:43:15.239Z,11.78
2022-11-05T19:46:24.943Z,11.85
2022-11-05T19:49:31.082Z,11.75
2022-11-05T19:52:37.365Z,11.77
2022-11-05T19:55:45.073Z,12.03
2022-11-05T19:58:51.960Z,11.64
2022-11-05T20:01:59.313Z,11.55
2022-11-05T20:05:05.946Z,11.48
2022-11-05T20:08:12.095Z,11.53
2022-11-05T20:11:18.721Z,11.54
2022-11-05T20:14:26.625Z,11.73
2022-11-05T20:17:34.154Z,11.75
2022-11-05T20:20:40.982Z,11.79
2022-11-05T20:23:47.682Z,11.76
2022-11-05T20:26:54.857Z,11.89
2022-11-05T20:30:01.393Z,11.93
2022-11-05T20:33:08.900Z,12.08
2022-11-05T20:36:17.235Z,12.03
2022-11-05T20:39:23.345Z,12.11
2022-11-05T20:42:29.636Z,12.10
2022-11-05T20:45:35.729Z,12.00
2022-11-05T20:48:44.872Z,12.20
2022-11-05T20:51:50.930Z,12.25
2022-11-05T20:54:57.099Z,12.29
2022-11-05T20:58:03.325Z,12.48
2022-11-05T21:01:12.790Z,12.43
2022-11-05T21:04:20.330Z,12.54
2022-11-05T21:07:26.697Z,12.61
2022-11-05T21:10:32.597Z,12.80
2022-11-05T21:13:39.134Z,12.76
2022-11-05T21:16:45.313Z,12.81
2022-11-05T21:19:52.788Z,12.86
2022-11-05T21:23:00.014Z,12.86
2022-11-05T21:26:06.902Z,12.88
2022-11-05T21:29:13.063Z,12.98
2022-11-05T21:32:19.394Z,12.84
2022-11-05T21:35:26.917Z,13.02
2022-11-05T21:38:33.288Z,13.20
2022-11-05T21:41:39.372Z,13.16
2022-11-05T21:44:45.838Z,13.06
2022-11-05T21:47:51.917Z,13.11
2022-11-05T21:51:16.798Z,13.02
2022-11-05T21:54:40.488Z,13.02
2022-11-05T21:58:04.266Z,13.04
2022-11-05T22:01:10.299Z,13.06
2022-11-05T22:04:17.349Z,13.04
2022-11-05T22:07:27.114Z,13.10
2022-11-05T22:10:33.335Z,13.14
2022-11-05T22:13:39.357Z,13.07
2022-11-05T22:16:45.602Z,13.09
2022-11-05T22:19:52.061Z,13.05
2022-11-05T22:22:59.929Z,12.99
2022-11-05T22:26:06.410Z,13.00
2022-11-05T22:29:13.218Z,13.00
2022-11-05T22:32:19.776Z,12.99
2022-11-05T22:35:25.793Z,12.94
2022-11-05T22:38:33.221Z,12.92
2022-11-05T22:41:39.659Z,12.92
2022-11-05T22:44:45.570Z,12.85
2022-11-05T22:47:51.685Z,12.86
2022-11-05T22:51:02.962Z,12.94
2022-11-05T22:54:11.385Z,12.93
2022-11-05T22:57:18.325Z,13.00
2022-11-05T23:00:36.133Z,12.99
2022-11-05T23:03:43.619Z,12.97
2022-11-05T23:07:07.404Z,12.99
2022-11-05T23:10:32.369Z,12.98
2022-11-05T23:13:38.449Z,13.07
2022-11-05T23:17:03.013Z,12.98
2022-11-05T23:20:27.130Z,13.01
2022-11-05T23:23:50.887Z,12.86
2022-11-05T23:26:58.319Z,12.90
2022-11-05T23:30:09.349Z,12.95
2022-11-05T23:33:14.736Z,12.99
2022-11-05T23:36:38.626Z,12.84
2022-11-05T23:39:44.780Z,12.80
2022-11-05T23:43:09.836Z,12.86
2022-11-05T23:46:33.328Z,12.76
2022-11-05T23:49:39.394Z,12.77
2022-11-05T23:52:45.582Z,12.65
2022-11-05T23:55:52.026Z,12.51
2022-11-05T23:58:59.534Z,12.49
